Terminal Aerodrome Forecast
Issued by NWS Cleveland, OH

Home | Current Version | Previous Version | Graphics & Text | Print | Product List | Glossary Off
Versions: 1 2 3 4 5 6 7 8 9 10 11 12 13 14 15 16 17 18 19

485
FTUS41 KCLE 221720
TAFERI
TAF
KERI 221720Z 2218/2318 21008KT P6SM OVC015
     FM222100 19007KT P6SM OVC025
     FM231200 20010G20KT 5SM BR OVC008=

USA.gov is the U.S. government's official web portal to all federal, state and local government web resources and services.